Time;durP1;ratioP1;P1;durP2;ratioP2;P2;SDS_P1;SDS_P2;PMS_P1;PMS_P2;Temp;Humidity;BMP_temperature;BMP_pressure;BME280_temperature;BME280_humidity;BME280_pressure;Samples;Min_cycle;Max_cycle;Signal;HPM_P1;HPM_P2
2022/01/16 00:01:22;;;;;;;2.55;0.70;;;;;;;3.11;48.18;100624.92;1733105;81;21559;-60
2022/01/16 00:06:28;;;;;;;3.25;0.80;;;;;;;3.13;48.07;100620.95;1727456;81;21142;-61
2022/01/16 00:08:55;;;;;;;5.70;0.98;;;;;;;3.13;48.13;100628.29;1731994;80;21023;-62
2022/01/16 00:11:23;;;;;;;3.52;0.85;;;;;;;3.13;48.07;100623.56;1738965;80;21047;-61
2022/01/16 00:13:51;;;;;;;3.12;1.05;;;;;;;3.12;48.08;100623.99;1733836;80;21175;-62
2022/01/16 00:16:17;;;;;;;3.15;0.72;;;;;;;3.09;47.68;100616.36;1708294;82;21656;-64
2022/01/16 00:18:52;;;;;;;3.58;0.93;;;;;;;3.13;48.00;100627.45;1733782;80;21254;-62
2022/01/16 00:21:22;;;;;;;2.72;0.70;;;;;;;3.11;48.04;100627.96;1707880;80;21166;-61
2022/01/16 00:23:49;;;;;;;2.10;0.75;;;;;;;3.10;48.30;100627.13;1708003;82;21050;-62
2022/01/16 00:26:17;;;;;;;4.37;0.95;;;;;;;3.09;48.14;100624.59;1713954;81;21077;-61
2022/01/16 00:28:43;;;;;;;3.10;0.88;;;;;;;3.10;48.19;100636.23;1739502;81;21615;-62
2022/01/16 00:31:10;;;;;;;3.58;0.80;;;;;;;3.08;47.85;100636.76;1719379;81;21061;-61
2022/01/16 00:33:44;;;;;;;4.22;1.20;;;;;;;3.10;47.77;100640.13;1708674;81;21065;-61
2022/01/16 00:36:07;;;;;;;2.87;0.90;;;;;;;3.12;48.00;100631.80;1735538;80;20959;-61
2022/01/16 00:38:34;;;;;;;2.30;0.68;;;;;;;3.13;47.96;100617.06;1737655;80;21078;-64
2022/01/16 00:41:01;;;;;;;2.95;0.75;;;;;;;3.15;48.10;100615.23;1731824;81;21157;-61
2022/01/16 00:43:27;;;;;;;3.87;1.05;;;;;;;3.14;47.80;100616.99;1723885;81;23277;-62
2022/01/16 00:45:53;;;;;;;2.33;0.80;;;;;;;3.14;47.86;100618.29;1704248;82;21091;-61
2022/01/16 00:48:20;;;;;;;2.65;0.93;;;;;;;3.12;47.90;100636.99;1726839;80;21102;-61
2022/01/16 00:50:46;;;;;;;3.67;0.80;;;;;;;3.13;47.84;100637.86;1727026;80;21123;-61
2022/01/16 00:53:13;;;;;;;2.70;0.70;;;;;;;3.10;47.93;100636.23;1703123;82;21584;-61
2022/01/16 00:55:41;;;;;;;4.65;1.00;;;;;;;3.10;47.90;100639.30;1728726;80;21146;-61
2022/01/16 00:58:07;;;;;;;3.50;0.82;;;;;;;3.08;47.96;100635.45;1728713;82;21427;-61
2022/01/16 01:00:35;;;;;;;3.80;0.85;;;;;;;3.10;48.21;100627.59;1722686;80;21078;-61
2022/01/16 01:03:01;;;;;;;7.17;1.12;;;;;;;3.11;48.21;100611.92;1730897;80;21130;-61
2022/01/16 01:05:28;;;;;;;3.33;1.00;;;;;;;3.11;48.22;100608.02;1733962;80;21004;-60
2022/01/16 01:07:56;;;;;;;3.67;0.93;;;;;;;3.13;48.07;100629.59;1730766;81;21639;-60
2022/01/16 01:10:31;;;;;;;4.12;0.75;;;;;;;3.13;48.06;100637.39;1737081;80;21098;-61
2022/01/16 01:13:06;;;;;;;7.08;0.70;;;;;;;3.12;48.03;100634.39;1736638;81;21074;-61
2022/01/16 01:15:29;;;;;;;3.37;0.80;;;;;;;3.13;47.99;100647.80;1740252;80;21485;-60
2022/01/16 01:17:56;;;;;;;2.85;0.72;;;;;;;3.11;47.91;100669.56;1729283;81;21047;-61
2022/01/16 01:20:24;;;;;;;2.98;0.93;;;;;;;3.12;47.74;100651.30;1732873;80;21319;-61
2022/01/16 01:22:52;;;;;;;5.95;1.10;;;;;;;3.12;47.97;100629.66;1730040;80;21097;-62
2022/01/16 01:25:19;;;;;;;3.70;0.85;;;;;;;3.10;47.64;100643.19;1728617;80;21075;-61
2022/01/16 01:27:46;;;;;;;2.12;0.93;;;;;;;3.11;47.78;100688.63;1734169;81;21099;-61
2022/01/16 01:30:15;;;;;;;5.62;1.25;;;;;;;3.09;47.73;100673.99;1719578;81;21090;-60
2022/01/16 01:32:42;;;;;;;2.40;1.00;;;;;;;3.08;48.01;100687.45;1714211;81;21116;-60
2022/01/16 01:35:12;;;;;;;4.03;0.95;;;;;;;3.08;47.88;100687.92;1709669;81;21110;-61
2022/01/16 01:37:39;;;;;;;1.82;0.55;;;;;;;3.04;47.37;100695.45;1686406;81;21085;-61
2022/01/16 01:40:09;;;;;;;5.65;0.90;;;;;;;3.02;47.43;100739.71;1690668;82;21114;-61
2022/01/16 01:42:44;;;;;;;4.08;0.80;;;;;;;3.01;47.58;100684.75;1712858;81;21527;-62
2022/01/16 01:53:22;;;;;;;3.20;0.47;;;;;;;2.79;47.46;100527.58;1717866;81;21098;-61
2022/01/16 01:55:48;;;;;;;2.67;0.75;;;;;;;2.74;47.99;100553.80;1716886;81;21114;-61
2022/01/16 01:58:15;;;;;;;2.62;0.40;;;;;;;2.75;48.10;100559.83;1717335;82;22557;-62
2022/01/16 02:00:42;;;;;;;1.15;0.40;;;;;;;2.74;48.17;100599.70;1717617;81;21075;-62
2022/01/16 02:05:44;;;;;;;2.45;0.60;;;;;;;2.74;48.00;100626.98;1716501;81;21109;-61
2022/01/16 02:08:11;;;;;;;2.35;0.57;;;;;;;2.76;48.21;100629.09;1711127;81;21117;-61
2022/01/16 02:10:39;;;;;;;7.90;1.25;;;;;;;2.78;48.23;100640.26;1711211;81;21318;-60
2022/01/16 02:13:08;;;;;;;3.42;0.90;;;;;;;2.79;48.42;100652.32;1718186;81;21106;-61
2022/01/16 02:32:00;;;;;;;4.05;0.82;;;;;;;2.90;48.22;100644.07;1722803;81;21110;-61
2022/01/16 02:34:39;;;;;;;3.12;1.00;;;;;;;2.89;48.41;100646.27;1679653;81;21548;-61
2022/01/16 02:37:08;;;;;;;5.12;1.22;;;;;;;2.90;48.50;100657.91;1711300;82;21157;-60
2022/01/16 02:39:36;;;;;;;1.57;0.70;;;;;;;2.90;48.51;100667.47;1703503;82;21161;-62
2022/01/16 02:42:05;;;;;;;2.60;0.53;;;;;;;2.90;48.53;100680.00;1709587;83;21584;-62
2022/01/16 02:44:45;;;;;;;3.08;0.78;;;;;;;2.91;48.55;100688.66;1766088;79;21097;-62
2022/01/16 02:47:04;;;;;;;2.98;0.68;;;;;;;2.90;48.60;100690.39;1773533;79;21568;-61
2022/01/16 02:49:33;;;;;;;3.75;0.70;;;;;;;2.91;48.82;100691.26;1762788;79;21054;-60
2022/01/16 02:52:08;;;;;;;3.67;0.78;;;;;;;2.92;48.74;100699.42;1765350;79;21052;-61
2022/01/16 02:54:37;;;;;;;2.15;0.60;;;;;;;2.91;48.82;100689.50;1761106;79;21602;-61
2022/01/16 02:57:06;;;;;;;2.25;0.53;;;;;;;2.94;48.88;100682.88;1769578;79;21094;-61
2022/01/16 02:59:33;;;;;;;4.28;0.70;;;;;;;2.95;48.95;100700.14;1719838;81;21089;-60
2022/01/16 03:02:01;;;;;;;5.40;0.85;;;;;;;2.95;49.02;100701.90;1716410;81;21773;-61
2022/01/16 03:04:29;;;;;;;3.02;0.55;;;;;;;2.89;49.13;100697.83;1718297;81;21109;-62
2022/01/16 03:06:58;;;;;;;3.50;0.72;;;;;;;2.89;49.33;100706.92;1713762;81;21046;-61
2022/01/16 03:09:25;;;;;;;2.02;0.47;;;;;;;2.87;49.45;100702.22;1714822;81;21549;-61
2022/01/16 03:11:52;;;;;;;4.70;0.90;;;;;;;2.83;49.51;100711.53;1716805;81;21031;-62
2022/01/16 03:14:20;;;;;;;2.50;0.75;;;;;;;2.79;49.39;100717.29;1714683;81;22000;-61
2022/01/16 03:16:51;;;;;;;3.33;0.65;;;;;;;2.85;49.57;100713.61;1715551;81;21560;-62
2022/01/16 03:22:04;;;;;;;;;;;;;;;2.79;48.74;100715.56;1719902;81;21564;-61
2022/01/16 03:24:40;;;;;;;3.20;0.80;;;;;;;2.79;48.73;100722.05;1730748;81;20186;-62
2022/01/16 03:27:14;;;;;;;3.45;0.85;;;;;;;2.70;49.01;100709.90;1683283;81;26368;-64
2022/01/16 03:29:43;;;;;;;3.83;0.93;;;;;;;2.66;49.24;100715.69;1717695;82;21062;-64
2022/01/16 03:32:14;;;;;;;2.25;0.42;;;;;;;2.60;49.12;100704.23;1717032;81;21090;-62
2022/01/16 03:34:40;;;;;;;5.37;0.70;;;;;;;2.63;49.32;100713.20;1669695;82;21083;-60
2022/01/16 03:37:07;;;;;;;3.08;0.93;;;;;;;2.60;49.58;100717.23;1697765;82;21587;-61
2022/01/16 03:39:34;;;;;;;3.37;1.05;;;;;;;2.62;49.70;100729.69;1728309;81;21128;-61
2022/01/16 03:42:01;;;;;;;3.08;0.75;;;;;;;2.63;49.70;100733.98;1723355;81;21561;-61
2022/01/16 03:44:29;;;;;;;3.00;1.17;;;;;;;2.63;49.74;100731.86;1723657;81;21148;-61
2022/01/16 03:46:56;;;;;;;4.45;1.20;;;;;;;2.65;49.82;100740.42;1722211;81;21027;-62
2022/01/16 03:49:26;;;;;;;2.58;0.80;;;;;;;2.66;49.84;100740.36;1717726;81;21104;-61
2022/01/16 03:51:54;;;;;;;2.77;0.80;;;;;;;2.73;49.82;100739.66;1737176;81;21118;-61
2022/01/16 03:54:23;;;;;;;6.40;1.20;;;;;;;2.75;49.85;100739.13;1726067;81;21066;-63
2022/01/16 03:56:50;;;;;;;2.58;0.80;;;;;;;2.77;49.75;100743.38;1692207;82;21094;-62
2022/01/16 03:59:16;;;;;;;4.12;1.10;;;;;;;2.79;49.82;100744.14;1713519;81;21102;-62
2022/01/16 04:01:43;;;;;;;5.00;1.10;;;;;;;2.81;49.89;100741.48;1695872;82;21434;-62
2022/01/16 04:04:09;;;;;;;3.92;0.55;;;;;;;2.85;49.96;100744.80;1726320;81;23268;-62
2022/01/16 04:06:36;;;;;;;3.15;0.80;;;;;;;2.86;50.22;100739.97;1723030;81;21090;-65
2022/01/16 04:09:03;;;;;;;3.47;0.88;;;;;;;2.87;50.43;100740.38;1724356;81;21148;-62
2022/01/16 04:11:31;;;;;;;7.60;1.05;;;;;;;2.88;50.57;100738.17;1730164;81;21031;-58
2022/01/16 04:14:08;;;;;;;4.22;0.98;;;;;;;2.89;50.73;100732.05;1716369;81;21095;-59
2022/01/16 04:16:32;;;;;;;3.15;0.85;;;;;;;2.89;50.90;100722.95;1718388;81;22852;-60
2022/01/16 04:18:59;;;;;;;6.58;1.12;;;;;;;2.88;51.12;100735.58;1721103;81;21106;-58
2022/01/16 04:21:27;;;;;;;5.20;1.27;;;;;;;2.84;51.16;100730.09;1724557;81;21544;-60
2022/01/16 04:23:53;;;;;;;3.87;1.00;;;;;;;2.84;51.27;100737.89;1692107;82;21069;-59
2022/01/16 04:26:20;;;;;;;3.30;0.80;;;;;;;2.78;51.37;100729.45;1715492;81;21563;-59
2022/01/16 04:28:46;;;;;;;3.33;0.93;;;;;;;2.81;51.41;100728.92;1717610;81;21161;-59
2022/01/16 04:31:14;;;;;;;5.45;1.00;;;;;;;2.78;51.59;100739.01;1717533;81;21757;-59
2022/01/16 04:33:40;;;;;;;2.83;0.82;;;;;;;2.78;51.59;100739.01;1712273;81;21077;-59
2022/01/16 04:36:08;;;;;;;3.25;0.90;;;;;;;2.75;51.66;100736.07;1715852;81;21448;-58
2022/01/16 04:38:37;;;;;;;3.75;1.07;;;;;;;2.74;51.69;100734.83;1684664;81;21123;-60
2022/01/16 04:43:49;;;;;;;6.58;1.45;;;;;;;2.72;51.75;100749.22;1711108;81;21093;-61
2022/01/16 04:46:24;;;;;;;3.25;0.70;;;;;;;2.71;51.94;100742.78;1690492;82;21078;-62
2022/01/16 04:48:52;;;;;;;4.75;1.10;;;;;;;2.69;51.69;100758.44;1718288;81;21104;-62
2022/01/16 04:51:19;;;;;;;3.67;0.90;;;;;;;2.69;51.72;100757.13;1713777;82;21070;-61
2022/01/16 04:53:45;;;;;;;4.67;1.20;;;;;;;2.69;51.87;100762.77;1765142;79;21227;-62
2022/01/16 04:56:12;;;;;;;3.83;1.32;;;;;;;2.68;51.77;100752.83;1762330;80;21113;-66
2022/01/16 04:58:39;;;;;;;4.37;1.15;;;;;;;2.71;51.68;100759.67;1762010;79;21059;-63
2022/01/16 05:01:06;;;;;;;3.20;1.15;;;;;;;2.74;51.41;100757.79;1743395;79;21093;-62
2022/01/16 05:03:33;;;;;;;3.83;1.02;;;;;;;2.77;51.27;100762.86;1769048;79;21125;-62
2022/01/16 05:06:01;;;;;;;4.42;1.22;;;;;;;2.80;51.40;100765.77;1771380;80;21129;-63
2022/01/16 05:08:28;;;;;;;5.40;1.27;;;;;;;2.82;51.37;100767.84;1761034;80;20991;-63
2022/01/16 05:10:56;;;;;;;3.00;0.93;;;;;;;2.84;51.18;100771.68;1731856;82;21089;-63
2022/01/16 05:18:42;;;;;;;5.05;1.12;;;;;;;2.81;51.54;100773.97;1705412;82;21082;-63
2022/01/16 05:21:09;;;;;;;1.82;0.60;;;;;;;2.84;51.00;100779.48;1702773;82;21134;-64
2022/01/16 05:23:35;;;;;;;4.20;1.25;;;;;;;2.82;50.99;100778.70;1694731;82;21591;-64
2022/01/16 05:26:04;;;;;;;3.25;1.27;;;;;;;2.79;51.32;100783.56;1695564;82;21614;-64
2022/01/16 05:28:30;;;;;;;3.75;1.20;;;;;;;2.76;52.25;100766.83;1726437;81;21042;-65
2022/01/16 05:30:57;;;;;;;10.78;1.10;;;;;;;2.79;51.03;100781.83;1697200;82;21118;-64
2022/01/16 05:33:23;;;;;;;3.90;1.10;;;;;;;2.80;51.13;100787.86;1709120;82;21153;-64
2022/01/16 05:35:50;;;;;;;4.97;1.07;;;;;;;2.79;51.04;100787.46;1724602;81;21137;-63
2022/01/16 05:38:16;;;;;;;5.80;1.27;;;;;;;2.79;50.89;100807.82;1718515;81;22478;-62
2022/01/16 05:40:43;;;;;;;3.70;1.00;;;;;;;2.78;50.99;100793.13;1696148;82;21090;-64
2022/01/16 05:43:09;;;;;;;3.70;1.02;;;;;;;2.76;50.69;100794.11;1691411;82;21596;-62
2022/01/16 05:45:36;;;;;;;2.83;0.90;;;;;;;2.76;51.07;100798.01;1692141;81;21163;-62
2022/01/16 05:48:04;;;;;;;3.10;0.90;;;;;;;2.75;50.94;100797.14;1678913;81;21046;-61
2022/01/16 05:50:31;;;;;;;5.17;1.22;;;;;;;2.76;50.73;100796.24;1716927;81;21086;-63
2022/01/16 05:52:59;;;;;;;1.82;0.50;;;;;;;2.74;50.41;100792.87;1714604;81;21160;-63
2022/01/16 05:55:36;;;;;;;4.35;1.25;;;;;;;2.72;50.27;100788.20;1714062;81;21856;-62
2022/01/16 05:57:57;;;;;;;4.12;1.15;;;;;;;2.71;50.17;100803.38;1711296;81;21117;-61
2022/01/16 06:00:24;;;;;;;2.55;0.85;;;;;;;2.68;50.29;100808.70;1711747;81;21128;-65
2022/01/16 06:02:50;;;;;;;4.95;1.07;;;;;;;2.70;50.10;100795.65;1714012;81;21185;-63
2022/01/16 06:05:16;;;;;;;4.85;1.05;;;;;;;2.72;50.25;100809.41;1683615;81;21073;-62
2022/01/16 06:07:52;;;;;;;3.55;1.00;;;;;;;2.75;49.85;100804.09;1695727;81;21070;-58
2022/01/16 06:10:14;;;;;;;4.55;0.98;;;;;;;2.70;48.84;100815.97;1682093;81;21114;-60
2022/01/16 06:12:41;;;;;;;5.33;1.25;;;;;;;2.73;49.53;100809.36;1677424;81;21135;-59
2022/01/16 06:15:08;;;;;;;3.15;1.00;;;;;;;2.74;48.52;100814.09;1710742;81;21135;-60
2022/01/16 06:17:37;;;;;;;4.85;1.00;;;;;;;2.74;48.23;100820.16;1716631;81;21117;-60
2022/01/16 06:20:05;;;;;;;4.67;0.82;;;;;;;2.79;49.03;100823.84;1706568;81;21087;-58
2022/01/16 06:22:33;;;;;;;2.37;0.85;;;;;;;2.82;47.80;100826.33;1702922;81;21081;-59
2022/01/16 06:24:59;;;;;;;4.50;1.07;;;;;;;2.88;47.64;100823.95;1714534;81;21082;-60
2022/01/16 06:27:26;;;;;;;3.15;1.00;;;;;;;2.86;47.12;100825.73;1717438;81;21564;-61
2022/01/16 06:29:52;;;;;;;6.53;1.20;;;;;;;2.88;47.05;100819.59;1710482;81;21098;-60
2022/01/16 06:32:19;;;;;;;2.10;0.57;;;;;;;2.89;47.09;100816.52;1714886;81;21739;-60
2022/01/16 06:34:46;;;;;;;5.47;0.93;;;;;;;2.89;47.02;100825.62;1680961;81;21233;-59
2022/01/16 06:37:12;;;;;;;2.85;0.93;;;;;;;2.90;47.20;100826.86;1713588;81;21710;-59
2022/01/16 06:39:38;;;;;;;2.35;0.72;;;;;;;2.88;47.37;100824.78;1713126;81;21142;-62
2022/01/16 06:42:05;;;;;;;4.47;1.22;;;;;;;2.86;47.38;100827.04;1677491;81;21544;-59
2022/01/16 06:44:33;;;;;;;2.85;0.82;;;;;;;2.84;47.40;100823.66;1710268;81;21916;-59
2022/01/16 06:46:59;;;;;;;4.25;0.90;;;;;;;2.86;47.62;100829.64;1700020;81;21077;-60
2022/01/16 06:49:26;;;;;;;4.70;1.20;;;;;;;2.85;47.60;100834.00;1711480;81;21153;-60
2022/01/16 06:51:52;;;;;;;4.08;0.93;;;;;;;2.84;47.89;100827.56;1723221;81;21116;-60
2022/01/16 06:54:18;;;;;;;4.25;1.30;;;;;;;2.84;47.78;100832.77;1724317;81;21477;-61
2022/01/16 06:56:45;;;;;;;6.30;0.93;;;;;;;2.83;47.90;100831.09;1721428;81;22470;-62
2022/01/16 06:59:11;;;;;;;2.98;1.05;;;;;;;2.85;47.96;100840.96;1720595;81;21121;-60
2022/01/16 07:01:39;;;;;;;4.35;1.30;;;;;;;2.85;48.22;100835.77;1718887;81;21137;-60
2022/01/16 07:04:06;;;;;;;5.37;1.17;;;;;;;2.89;47.96;100842.52;1717131;81;21099;-60
2022/01/16 07:06:32;;;;;;;3.52;0.90;;;;;;;2.87;47.98;100843.04;1702423;82;21552;-62
2022/01/16 07:08:59;;;;;;;2.72;0.93;;;;;;;2.89;48.17;100852.91;1716244;81;21209;-62
2022/01/16 07:11:25;;;;;;;6.45;1.30;;;;;;;2.88;48.52;100852.54;1712628;81;21639;-63
2022/01/16 07:13:52;;;;;;;6.37;1.62;;;;;;;2.91;48.27;100857.16;1701563;82;21096;-62
2022/01/16 07:16:18;;;;;;;6.10;1.17;;;;;;;2.91;47.79;100853.72;1716698;81;21151;-62
2022/01/16 07:18:45;;;;;;;6.37;1.65;;;;;;;2.86;47.73;100859.09;1719073;81;21136;-61
2022/01/16 07:21:14;;;;;;;3.90;1.40;;;;;;;2.81;47.85;100862.77;1720784;81;21528;-60
2022/01/16 07:23:42;;;;;;;3.45;1.05;;;;;;;2.78;47.49;100860.69;1718160;81;21069;-61
2022/01/16 07:26:09;;;;;;;4.70;1.17;;;;;;;2.75;47.16;100866.01;1724043;81;21120;-60
2022/01/16 07:28:35;;;;;;;4.35;1.10;;;;;;;2.73;46.42;100856.13;1723233;81;21100;-61
2022/01/16 07:31:02;;;;;;;4.47;1.00;;;;;;;2.75;46.82;100869.06;1719479;81;21109;-61
2022/01/16 07:33:29;;;;;;;3.52;0.93;;;;;;;2.76;46.79;100870.77;1694826;82;21642;-61
2022/01/16 07:35:55;;;;;;;3.83;1.40;;;;;;;2.79;46.35;100868.03;1684466;82;21189;-60
2022/01/16 07:38:22;;;;;;;3.83;0.98;;;;;;;2.82;46.45;100872.27;1665963;82;21185;-61
2022/01/16 07:40:49;;;;;;;3.33;0.88;;;;;;;2.83;46.42;100872.67;1690171;82;21109;-63
2022/01/16 07:43:15;;;;;;;4.55;1.07;;;;;;;2.79;45.41;100875.39;1699822;82;21143;-65
2022/01/16 07:45:42;;;;;;;4.17;1.10;;;;;;;2.79;45.53;100877.13;1703020;81;21230;-60
2022/01/16 07:48:09;;;;;;;4.20;1.30;;;;;;;2.81;45.67;100877.06;1727398;81;21102;-61
2022/01/16 07:50:37;;;;;;;4.60;0.93;;;;;;;2.81;45.03;100874.03;1694118;82;21153;-62
2022/01/16 07:53:04;;;;;;;5.05;1.20;;;;;;;2.79;44.38;100870.19;1719318;81;21090;-61
2022/01/16 07:55:30;;;;;;;4.20;0.98;;;;;;;2.78;44.34;100863.75;1720013;81;21140;-62
2022/01/16 07:57:57;;;;;;;3.80;1.12;;;;;;;2.70;44.56;100858.84;1714979;81;21241;-61
2022/01/16 08:00:25;;;;;;;4.12;0.90;;;;;;;2.67;44.86;100856.36;1723795;81;21172;-62
2022/01/16 08:02:51;;;;;;;2.62;0.70;;;;;;;2.68;45.08;100865.03;1715784;81;21015;-60
2022/01/16 08:05:19;;;;;;;3.52;0.98;;;;;;;2.66;45.29;100859.05;1710081;81;21082;-63
2022/01/16 08:07:45;;;;;;;4.17;1.30;;;;;;;2.67;45.23;100867.22;1715878;82;21051;-60
2022/01/16 08:10:13;;;;;;;4.08;1.30;;;;;;;2.67;45.34;100877.16;1721282;81;22167;-63
2022/01/16 08:12:39;;;;;;;4.37;1.27;;;;;;;2.67;45.63;100871.12;1719001;81;21109;-63
2022/01/16 08:15:07;;;;;;;4.85;1.47;;;;;;;2.70;45.34;100883.53;1728300;81;21016;-61
2022/01/16 08:17:36;;;;;;;4.58;0.95;;;;;;;2.72;45.65;100884.34;1717924;81;21361;-61
2022/01/16 08:20:06;;;;;;;6.72;1.65;;;;;;;2.73;45.73;100884.72;1717854;81;21224;-62
2022/01/16 08:22:35;;;;;;;3.17;1.00;;;;;;;2.74;46.14;100877.76;1718587;81;21840;-60
2022/01/16 08:25:01;;;;;;;4.33;1.62;;;;;;;2.74;46.28;100877.76;1720999;82;21073;-61
2022/01/16 08:27:28;;;;;;;3.62;1.30;;;;;;;2.75;46.46;100877.70;1715201;81;21790;-61
2022/01/16 08:29:55;;;;;;;4.42;1.00;;;;;;;2.78;46.63;100878.88;1723071;81;21125;-61
2022/01/16 08:32:22;;;;;;;8.88;1.72;;;;;;;2.83;46.67;100882.61;1720952;81;21061;-59
2022/01/16 08:34:49;;;;;;;5.00;1.10;;;;;;;2.86;46.68;100877.72;1719446;81;21141;-61
2022/01/16 08:37:15;;;;;;;5.28;1.30;;;;;;;2.90;47.17;100879.31;1720835;81;21051;-60
2022/01/16 08:39:42;;;;;;;3.27;1.20;;;;;;;2.96;46.71;100880.38;1687110;81;21644;-60
2022/01/16 08:42:08;;;;;;;6.00;1.60;;;;;;;2.93;46.57;100889.59;1724017;81;21121;-61
2022/01/16 08:44:36;;;;;;;3.98;1.32;;;;;;;2.92;46.20;100899.13;1721907;81;21093;-61
2022/01/16 08:47:03;;;;;;;4.25;1.37;;;;;;;2.93;46.48;100893.48;1713356;82;21063;-62
2022/01/16 08:52:21;;;;;;;5.85;1.80;;;;;;;2.94;45.59;100880.44;1774580;78;23335;-67
2022/01/16 08:54:48;;;;;;;4.65;1.10;;;;;;;2.89;48.28;100878.91;1758474;80;21591;-62
2022/01/16 08:57:15;;;;;;;3.10;1.20;;;;;;;3.02;46.71;100883.17;1753703;80;22154;-61
2022/01/16 08:59:41;;;;;;;4.30;1.12;;;;;;;3.05;46.18;100885.19;1741826;80;21093;-62
2022/01/16 09:02:09;;;;;;;3.70;1.00;;;;;;;3.05;46.09;100881.28;1752886;80;21591;-63
2022/01/16 09:04:37;;;;;;;4.58;1.60;;;;;;;3.05;45.87;100864.84;1722532;81;21171;-63
2022/01/16 09:07:04;;;;;;;5.55;1.30;;;;;;;3.02;45.79;100852.81;1752408;80;21106;-64
2022/01/16 09:09:31;;;;;;;4.72;1.00;;;;;;;2.98;46.11;100853.86;1747820;80;21696;-63
2022/01/16 09:11:59;;;;;;;4.45;1.40;;;;;;;2.96;46.27;100862.17;1694956;81;21016;-63
2022/01/16 09:14:26;;;;;;;8.40;1.07;;;;;;;2.95;46.55;100862.61;1675958;84;21114;-63
2022/01/16 09:16:53;;;;;;;2.33;0.68;;;;;;;2.93;44.73;100851.90;1686898;82;21544;-64
2022/01/16 09:19:19;;;;;;;5.05;1.00;;;;;;;2.90;44.43;100864.55;1668837;84;21101;-63
2022/01/16 09:21:46;;;;;;;3.30;0.78;;;;;;;2.85;44.73;100851.36;1694825;82;21960;-62
2022/01/16 09:24:13;;;;;;;4.05;1.12;;;;;;;2.84;44.95;100847.92;1693188;82;21114;-63
2022/01/16 09:26:39;;;;;;;3.87;1.02;;;;;;;2.84;44.82;100844.45;1676655;84;21015;-62
2022/01/16 09:29:06;;;;;;;5.92;0.93;;;;;;;2.85;44.98;100846.16;1691533;82;21545;-61
2022/01/16 09:31:33;;;;;;;3.47;1.02;;;;;;;2.86;45.00;100841.33;1672513;83;21137;-63
2022/01/16 09:34:00;;;;;;;3.42;1.00;;;;;;;2.87;45.24;100836.08;1686936;82;21104;-63
2022/01/16 09:36:28;;;;;;;4.72;1.00;;;;;;;2.89;45.50;100831.69;1689870;82;21082;-63
2022/01/16 09:38:54;;;;;;;5.55;1.07;;;;;;;2.92;45.34;100828.94;1688506;82;21086;-62
2022/01/16 09:41:21;;;;;;;3.22;1.00;;;;;;;2.94;45.19;100831.04;1694332;82;21019;-61
2022/01/16 09:43:49;;;;;;;2.95;1.05;;;;;;;2.93;45.28;100832.41;1696167;82;21102;-60
2022/01/16 09:46:15;;;;;;;4.17;0.85;;;;;;;2.94;47.39;100828.44;1691025;82;21110;-61
2022/01/16 09:48:43;;;;;;;5.90;1.22;;;;;;;3.02;46.37;100820.77;1660661;84;21121;-61
2022/01/16 09:51:09;;;;;;;4.25;1.00;;;;;;;3.03;45.59;100816.81;1675677;83;21542;-64
2022/01/16 09:53:36;;;;;;;3.12;0.90;;;;;;;3.01;45.64;100816.03;1647012;85;21126;-62
2022/01/16 09:56:03;;;;;;;4.35;1.35;;;;;;;3.02;46.02;100823.37;1652171;85;21572;-63
2022/01/16 09:58:29;;;;;;;3.72;0.55;;;;;;;3.05;46.23;100825.84;1661210;85;21208;-62
2022/01/16 10:00:55;;;;;;;5.05;1.30;;;;;;;3.05;45.99;100833.19;1639317;85;21079;-62
2022/01/16 10:03:38;;;;;;;4.95;1.02;;;;;;;3.01;46.40;100832.07;1658922;85;21159;-61
2022/01/16 10:06:14;;;;;;;3.10;0.90;;;;;;;2.96;46.60;100830.52;1670642;85;21082;-62
2022/01/16 10:08:42;;;;;;;4.62;1.50;;;;;;;2.93;46.46;100830.64;1659560;85;21082;-60
2022/01/16 10:11:40;;;;;;;3.98;1.37;;;;;;;2.91;46.68;100814.73;1666364;83;21362;-61
2022/01/16 10:14:22;;;;;;;4.25;1.15;;;;;;;2.94;46.76;100823.24;1641359;83;21114;-60
2022/01/16 10:16:46;;;;;;;5.87;1.45;;;;;;;2.98;46.46;100818.76;1648432;83;21088;-62
2022/01/16 10:19:26;;;;;;;2.90;0.90;;;;;;;3.02;46.00;100824.20;1667149;85;21078;-60
2022/01/16 10:21:54;;;;;;;4.40;1.05;;;;;;;3.03;46.29;100819.87;1659950;85;21035;-61
2022/01/16 10:24:27;;;;;;;3.12;1.10;;;;;;;3.04;46.23;100812.45;1636971;83;21146;-61
2022/01/16 10:27:14;;;;;;;3.80;1.05;;;;;;;3.06;46.04;100818.42;1666250;85;21127;-60
2022/01/16 10:29:45;;;;;;;4.30;0.98;;;;;;;3.06;46.29;100813.22;1662830;85;21143;-62
2022/01/16 10:32:22;;;;;;;4.83;1.42;;;;;;;3.02;45.95;100817.70;1665518;85;21074;-61
2022/01/16 10:34:52;;;;;;;3.67;0.98;;;;;;;3.01;45.91;100822.97;1661001;85;21086;-61
2022/01/16 10:37:30;;;;;;;5.30;1.47;;;;;;;2.96;45.82;100816.69;1645586;84;21150;-62
2022/01/16 10:40:18;;;;;;;2.55;0.80;;;;;;;2.93;46.02;100815.50;1711419;82;21532;-62
2022/01/16 10:42:51;;;;;;;3.83;1.00;;;;;;;2.92;46.38;100814.64;1653830;85;21078;-61
2022/01/16 10:45:20;;;;;;;3.42;1.07;;;;;;;2.96;46.28;100817.98;1721219;82;21066;-61
2022/01/16 10:47:51;;;;;;;4.05;0.90;;;;;;;2.95;45.45;100813.68;1677885;82;21097;-61
2022/01/16 10:50:28;;;;;;;3.62;0.80;;;;;;;2.87;45.84;100809.25;1684845;82;21246;-61
2022/01/16 10:53:10;;;;;;;3.75;1.02;;;;;;;2.82;45.56;100800.80;1728063;80;22417;-62
2022/01/16 10:55:47;;;;;;;3.80;0.98;;;;;;;2.89;45.69;100802.23;1734091;80;21088;-60
2022/01/16 10:58:22;;;;;;;4.22;0.90;;;;;;;2.90;46.01;100813.86;1737912;80;21133;-60
2022/01/16 11:01:06;;;;;;;4.17;0.85;;;;;;;2.89;45.74;100799.20;1688984;82;21078;-62
2022/01/16 11:03:47;;;;;;;5.15;1.20;;;;;;;2.93;45.79;100800.74;1737329;80;21454;-61
2022/01/16 11:06:18;;;;;;;2.50;0.68;;;;;;;2.92;45.85;100797.73;1723083;80;21066;-61
2022/01/16 11:08:53;;;;;;;3.62;0.78;;;;;;;2.91;45.47;100813.43;1737554;80;21120;-61
2022/01/16 11:11:20;;;;;;;4.15;1.02;;;;;;;2.87;45.34;100820.95;1739642;80;21089;-59
2022/01/16 11:13:46;;;;;;;5.22;1.27;;;;;;;2.74;45.47;100820.16;1692756;80;21031;-60
2022/01/16 11:16:14;;;;;;;3.20;0.85;;;;;;;2.68;45.80;100804.80;1734428;80;21114;-60
2022/01/16 11:18:48;;;;;;;1.40;0.47;;;;;;;2.70;45.65;100812.07;1733238;80;21046;-59
2022/01/16 11:26:23;;;;;;;5.83;1.12;;;;;;;2.67;46.07;100803.56;1718352;80;21071;-59
2022/01/16 11:28:53;;;;;;;10.90;1.50;;;;;;;2.69;46.26;100810.84;1701108;80;21152;-59
2022/01/16 11:31:20;;;;;;;3.65;1.20;;;;;;;2.71;46.03;100805.98;1731374;80;21104;-60
2022/01/16 11:33:47;;;;;;;4.67;1.05;;;;;;;2.75;45.81;100801.04;1737305;80;21089;-58
2022/01/16 11:36:24;;;;;;;3.90;0.90;;;;;;;2.77;45.52;100796.65;1733928;80;21090;-59
2022/01/16 11:39:00;;;;;;;3.90;1.10;;;;;;;2.81;45.86;100796.50;1742037;80;21603;-59
2022/01/16 11:41:39;;;;;;;4.87;1.40;;;;;;;2.81;45.85;100806.89;1717623;80;21126;-59
2022/01/16 11:44:10;;;;;;;2.87;0.60;;;;;;;2.76;45.90;100805.34;1704004;82;21061;-59
2022/01/16 11:46:41;;;;;;;4.42;0.95;;;;;;;2.69;45.82;100804.34;1712660;80;21077;-60
2022/01/16 11:49:11;;;;;;;5.33;1.47;;;;;;;2.70;45.80;100809.94;1735403;80;21078;-60
2022/01/16 11:51:48;;;;;;;2.90;1.10;;;;;;;2.68;44.89;100802.20;1736376;80;21089;-60
2022/01/16 11:54:30;;;;;;;3.37;0.80;;;;;;;2.70;44.87;100799.55;1731014;80;21197;-59
2022/01/16 11:57:08;;;;;;;3.87;0.85;;;;;;;2.67;44.71;100801.80;1733898;80;21111;-61
2022/01/16 11:59:38;;;;;;;5.20;1.30;;;;;;;2.63;44.74;100782.06;1710518;82;21046;-59
2022/01/16 12:02:14;;;;;;;6.53;1.17;;;;;;;2.60;45.07;100790.80;1735698;80;21064;-60
2022/01/16 12:04:48;;;;;;;6.28;1.30;;;;;;;2.61;44.97;100792.97;1711302;82;21023;-59
2022/01/16 12:07:23;;;;;;;3.67;1.10;;;;;;;2.56;45.17;100795.75;1727241;80;21132;-61
2022/01/16 12:09:53;;;;;;;3.42;0.98;;;;;;;2.52;45.27;100786.83;1696903;82;21134;-61
2022/01/16 12:12:27;;;;;;;5.85;1.10;;;;;;;2.53;45.31;100788.53;1739808;80;21051;-59
2022/01/16 12:15:11;;;;;;;6.55;1.35;;;;;;;2.55;44.86;100799.23;1737225;80;21076;-61
2022/01/16 12:17:46;;;;;;;6.95;1.30;;;;;;;2.55;44.70;100785.41;1736591;80;21117;-60
2022/01/16 12:20:20;;;;;;;2.22;0.57;;;;;;;2.50;44.74;100789.48;1736654;80;21059;-61
2022/01/16 12:23:08;;;;;;;3.95;1.32;;;;;;;2.51;44.87;100791.66;1726803;80;22463;-58
2022/01/16 12:25:40;;;;;;;3.83;1.20;;;;;;;2.48;44.96;100794.38;1699946;82;22527;-59
2022/01/16 12:28:14;;;;;;;4.37;1.27;;;;;;;2.46;44.91;100795.73;1671021;83;21138;-59
2022/01/16 12:30:59;;;;;;;3.15;1.10;;;;;;;2.44;44.75;100791.05;1654890;83;21224;-60